createdAt,value
2019-02-26T00:01:29.171Z,29.13
2019-02-26T00:03:59.510Z,33.67
2019-02-26T00:06:30.209Z,32.10
2019-02-26T00:09:03.184Z,41.73
2019-02-26T00:11:32.913Z,34.17
2019-02-26T00:14:02.107Z,41.00
2019-02-26T00:16:35.265Z,35.70
2019-02-26T00:19:04.644Z,38.17
2019-02-26T00:21:33.860Z,35.07
2019-02-26T00:24:05.052Z,30.80
2019-02-26T00:26:36.238Z,28.27
2019-02-26T00:29:06.636Z,33.80
2019-02-26T00:31:37.304Z,32.20
2019-02-26T00:34:08.285Z,31.40
2019-02-26T00:36:38.221Z,33.40
2019-02-26T00:39:08.046Z,34.60
2019-02-26T00:41:37.510Z,31.70
2019-02-26T00:44:07.047Z,31.77
2019-02-26T00:46:39.346Z,35.83
2019-02-26T00:49:08.047Z,39.97
2019-02-26T00:51:39.831Z,35.23
2019-02-26T00:54:08.775Z,43.07
2019-02-26T00:56:38.611Z,39.83
2019-02-26T00:59:09.357Z,34.73
2019-02-26T01:01:38.752Z,29.90
2019-02-26T01:04:08.207Z,39.93
2019-02-26T01:06:38.022Z,30.33
2019-02-26T01:09:10.689Z,34.63
2019-02-26T01:11:39.304Z,29.13
2019-02-26T01:14:08.762Z,29.47
2019-02-26T01:16:39.441Z,30.97
2019-02-26T01:19:10.909Z,33.37
2019-02-26T01:21:40.595Z,36.03
2019-02-26T01:24:10.035Z,43.23
2019-02-26T01:26:42.522Z,37.53
2019-02-26T01:29:10.644Z,39.83
2019-02-26T01:31:40.056Z,36.00
2019-02-26T01:34:11.555Z,41.43
2019-02-26T01:36:42.565Z,29.83
2019-02-26T01:39:13.790Z,35.80
2019-02-26T01:41:45.444Z,40.53
2019-02-26T01:44:14.399Z,34.17
2019-02-26T01:46:43.867Z,33.30
2019-02-26T01:49:13.293Z,30.67
2019-02-26T01:51:43.274Z,32.80
2019-02-26T01:54:14.557Z,35.63
2019-02-26T01:56:45.078Z,33.77
2019-02-26T01:59:18.282Z,35.03
2019-02-26T02:01:46.610Z,37.10
2019-02-26T02:04:19.506Z,33.10
2019-02-26T02:06:48.331Z,33.23
2019-02-26T02:09:19.926Z,31.43
2019-02-26T02:11:49.002Z,29.87
2019-02-26T02:14:18.421Z,31.90
2019-02-26T02:16:47.889Z,35.37
2019-02-26T02:19:20.091Z,37.13
2019-02-26T02:21:49.413Z,37.57
2019-02-26T02:24:22.167Z,33.13
2019-02-26T02:26:53.524Z,31.57
2019-02-26T02:29:24.059Z,34.87
2019-02-26T02:31:54.876Z,34.07
2019-02-26T02:34:27.032Z,34.53
2019-02-26T02:36:56.048Z,35.67
2019-02-26T02:39:26.604Z,41.33
2019-02-26T02:41:56.625Z,41.17
2019-02-26T02:44:26.131Z,35.20
2019-02-26T02:46:55.538Z,35.63
2019-02-26T02:49:24.973Z,38.17
2019-02-26T02:51:54.400Z,37.80
2019-02-26T02:54:26.044Z,34.90
2019-02-26T02:56:56.853Z,36.77
2019-02-26T02:59:28.236Z,40.40
2019-02-26T03:01:57.655Z,41.23
2019-02-26T03:04:29.072Z,37.13
2019-02-26T03:07:00.544Z,32.60
2019-02-26T03:09:31.247Z,28.03
2019-02-26T03:12:00.633Z,25.70
2019-02-26T03:14:32.995Z,31.17
2019-02-26T03:17:01.193Z,32.80
2019-02-26T03:19:32.476Z,32.87
2019-02-26T03:22:01.779Z,33.27
2019-02-26T03:24:33.201Z,34.73
2019-02-26T03:27:02.363Z,32.80
2019-02-26T03:29:31.776Z,34.20
2019-02-26T03:32:01.240Z,44.30
2019-02-26T03:34:30.696Z,38.27
2019-02-26T03:37:03.096Z,35.67
2019-02-26T03:39:31.319Z,37.37
2019-02-26T03:42:01.068Z,32.50
2019-02-26T03:44:30.511Z,37.83
2019-02-26T03:46:59.941Z,35.87
2019-02-26T03:49:29.369Z,42.23
2019-02-26T03:51:59.993Z,38.47
2019-02-26T03:54:29.812Z,38.53
2019-02-26T03:56:59.388Z,34.10
2019-02-26T03:59:28.890Z,37.37
2019-02-26T04:01:58.514Z,41.50
2019-02-26T04:04:30.475Z,38.40
2019-02-26T04:07:01.432Z,40.53
2019-02-26T04:09:30.449Z,38.40
2019-02-26T04:11:59.835Z,37.40
2019-02-26T04:14:30.698Z,34.50
2019-02-26T04:17:01.499Z,36.00
2019-02-26T04:19:31.486Z,38.20
2019-02-26T04:22:29.522Z,33.33
2019-02-26T04:25:09.497Z,31.23
2019-02-26T04:28:02.596Z,34.07
2019-02-26T04:30:59.099Z,32.17
2019-02-26T04:34:04.406Z,38.77
2019-02-26T04:36:54.053Z,36.57
2019-02-26T04:39:47.673Z,37.13
2019-02-26T04:42:49.731Z,46.87
2019-02-26T04:45:51.299Z,46.03
2019-02-26T04:48:29.158Z,39.57
2019-02-26T04:50:59.399Z,41.03
2019-02-26T04:53:31.180Z,38.33
2019-02-26T04:56:02.859Z,44.47
2019-02-26T04:58:31.194Z,39.13
2019-02-26T05:01:00.985Z,37.50
2019-02-26T05:03:30.525Z,36.53
2019-02-26T05:06:02.077Z,63.20
2019-02-26T05:08:32.262Z,43.27
2019-02-26T05:11:02.527Z,44.57
2019-02-26T05:13:32.632Z,42.70
2019-02-26T05:16:03.188Z,46.03
2019-02-26T05:18:34.513Z,42.37
2019-02-26T05:21:05.262Z,43.57
2019-02-26T05:23:34.939Z,43.63
2019-02-26T05:26:05.759Z,45.70
2019-02-26T05:28:37.897Z,44.93
2019-02-26T05:31:09.026Z,44.83
2019-02-26T05:33:38.426Z,50.67
2019-02-26T05:36:09.498Z,50.37
2019-02-26T05:38:39.375Z,43.77
2019-02-26T05:41:08.881Z,39.43
2019-02-26T05:43:38.313Z,34.00
2019-02-26T05:46:09.192Z,38.23
2019-02-26T05:48:40.071Z,37.97
2019-02-26T05:51:11.437Z,43.10
2019-02-26T05:53:41.110Z,43.50
2019-02-26T05:56:11.621Z,37.27
2019-02-26T05:58:44.720Z,46.47
2019-02-26T06:01:14.372Z,42.17
2019-02-26T06:03:46.740Z,41.47
2019-02-26T06:06:15.635Z,44.73
2019-02-26T06:08:45.369Z,41.40
2019-02-26T06:11:16.978Z,39.60
2019-02-26T06:13:46.165Z,41.00
2019-02-26T06:16:15.587Z,39.23
2019-02-26T06:18:46.514Z,41.63
2019-02-26T06:21:18.418Z,36.63
2019-02-26T06:23:55.467Z,42.43
2019-02-26T06:26:28.035Z,41.60
2019-02-26T06:28:56.032Z,33.10
2019-02-26T06:31:32.730Z,38.20
2019-02-26T06:34:05.696Z,32.43
2019-02-26T06:36:33.632Z,38.70
2019-02-26T06:39:06.001Z,41.07
2019-02-26T06:41:40.118Z,37.60
2019-02-26T06:44:09.744Z,46.13
2019-02-26T06:46:40.711Z,44.53
2019-02-26T06:49:10.474Z,40.93
2019-02-26T06:51:39.908Z,43.07
2019-02-26T06:54:09.352Z,43.43
2019-02-26T06:56:43.261Z,44.50
2019-02-26T06:59:12.180Z,45.93
2019-02-26T07:01:42.062Z,48.83
2019-02-26T07:04:12.862Z,46.03
2019-02-26T07:06:42.754Z,50.07
2019-02-26T07:09:15.274Z,42.27
2019-02-26T07:11:43.636Z,42.30
2019-02-26T07:14:13.056Z,45.67
2019-02-26T07:16:42.460Z,44.97
2019-02-26T07:19:14.045Z,41.57
2019-02-26T07:21:45.375Z,43.50
2019-02-26T07:24:15.844Z,36.70
2019-02-26T07:26:46.391Z,37.93
2019-02-26T07:29:17.571Z,41.17
2019-02-26T07:31:47.781Z,53.57
2019-02-26T07:34:20.451Z,51.07
2019-02-26T07:36:50.653Z,47.33
2019-02-26T07:39:22.719Z,55.40
2019-02-26T07:41:54.212Z,51.83
2019-02-26T07:44:24.278Z,38.67
2019-02-26T07:46:54.387Z,48.63
2019-02-26T07:49:23.851Z,49.40
2019-02-26T07:51:53.335Z,49.73
2019-02-26T07:54:22.777Z,45.53
2019-02-26T07:56:53.362Z,45.57
2019-02-26T07:59:27.635Z,48.40
2019-02-26T08:01:57.541Z,53.23
2019-02-26T08:04:26.943Z,47.20
2019-02-26T08:06:57.390Z,49.20
2019-02-26T08:09:27.583Z,51.17
2019-02-26T08:11:57.007Z,43.57
2019-02-26T08:14:26.429Z,36.97
2019-02-26T08:16:56.758Z,40.97
2019-02-26T08:19:29.502Z,34.27
2019-02-26T08:21:58.279Z,42.77
2019-02-26T08:24:30.511Z,30.73
2019-02-26T08:27:01.450Z,31.10
2019-02-26T08:29:31.827Z,27.87
2019-02-26T08:32:04.335Z,30.30
2019-02-26T08:34:33.523Z,29.10
2019-02-26T08:37:02.981Z,30.23
2019-02-26T08:39:32.430Z,29.47
2019-02-26T08:42:05.449Z,34.73
2019-02-26T08:44:36.899Z,30.53
2019-02-26T08:47:11.196Z,35.67
2019-02-26T08:49:40.116Z,31.53
2019-02-26T08:52:09.399Z,32.10
2019-02-26T08:54:38.918Z,29.20
2019-02-26T08:57:08.435Z,32.23
2019-02-26T08:59:37.870Z,35.73
2019-02-26T09:02:07.703Z,28.73
2019-02-26T09:04:38.360Z,39.70
2019-02-26T09:07:08.549Z,32.90
2019-02-26T09:09:37.985Z,28.40
2019-02-26T09:12:07.513Z,27.27
2019-02-26T09:14:37.629Z,31.23
2019-02-26T09:17:08.094Z,34.43
2019-02-26T09:19:38.200Z,28.83
2019-02-26T09:22:11.785Z,33.77
2019-02-26T09:24:39.066Z,31.73
2019-02-26T09:27:10.654Z,29.23
2019-02-26T09:29:44.282Z,30.27
2019-02-26T09:32:12.175Z,29.10
2019-02-26T09:34:42.694Z,33.67
2019-02-26T09:37:12.120Z,29.03
2019-02-26T09:39:41.558Z,33.53
2019-02-26T09:42:10.978Z,30.10
2019-02-26T09:44:40.434Z,26.33
2019-02-26T09:47:09.860Z,27.87
2019-02-26T09:49:39.294Z,22.23
2019-02-26T09:52:08.832Z,25.63
2019-02-26T09:54:42.719Z,27.07
2019-02-26T09:57:09.419Z,24.10
2019-02-26T09:59:38.841Z,25.37
2019-02-26T10:02:08.312Z,23.67
2019-02-26T10:04:37.736Z,21.40
2019-02-26T10:07:09.407Z,21.10
2019-02-26T10:09:40.728Z,28.27
2019-02-26T10:12:12.642Z,22.00
2019-02-26T10:14:40.991Z,26.10
2019-02-26T10:17:12.401Z,25.87
2019-02-26T10:19:43.863Z,19.03
2019-02-26T10:22:13.726Z,17.00
2019-02-26T10:24:43.316Z,20.20
2019-02-26T10:27:14.592Z,19.80
2019-02-26T10:29:45.108Z,16.77
2019-02-26T10:32:15.236Z,22.10
2019-02-26T10:34:44.676Z,19.90
2019-02-26T10:37:14.185Z,18.23
2019-02-26T10:39:44.479Z,16.50
2019-02-26T10:42:18.045Z,17.23
2019-02-26T10:44:46.247Z,16.23
2019-02-26T10:47:15.677Z,16.43
2019-02-26T10:49:49.012Z,20.17
2019-02-26T10:52:21.706Z,15.13
2019-02-26T10:54:51.427Z,18.03
2019-02-26T10:57:20.893Z,17.40
2019-02-26T10:59:56.867Z,16.47
2019-02-26T11:02:23.083Z,17.90
2019-02-26T11:04:55.463Z,16.20
2019-02-26T11:07:26.465Z,16.13
2019-02-26T11:09:58.589Z,18.20
2019-02-26T11:12:28.488Z,17.23
2019-02-26T11:14:58.578Z,15.77
2019-02-26T11:17:31.586Z,14.90
2019-02-26T11:20:01.153Z,15.77
2019-02-26T11:22:31.708Z,16.67
2019-02-26T11:25:01.464Z,16.20
2019-02-26T11:27:31.127Z,13.33
2019-02-26T11:30:02.078Z,17.53
2019-02-26T11:32:32.616Z,17.43
2019-02-26T11:35:03.973Z,14.47
2019-02-26T11:37:33.399Z,12.87
2019-02-26T11:40:05.374Z,15.90
2019-02-26T11:42:33.990Z,17.97
2019-02-26T11:45:06.602Z,14.20
2019-02-26T11:47:37.354Z,20.10
2019-02-26T11:50:11.848Z,14.50
2019-02-26T11:52:41.420Z,13.60
2019-02-26T11:55:13.151Z,16.43
2019-02-26T11:57:45.163Z,16.13
2019-02-26T12:00:50.622Z,16.93
2019-02-26T12:03:22.892Z,19.17
2019-02-26T12:05:54.146Z,17.20
2019-02-26T12:08:25.708Z,16.37
2019-02-26T12:10:58.012Z,12.90
2019-02-26T12:13:27.710Z,13.43
2019-02-26T12:15:57.310Z,16.60
2019-02-26T12:18:26.747Z,15.50
2019-02-26T12:20:56.168Z,18.83
2019-02-26T12:23:25.685Z,14.57
2019-02-26T12:25:56.434Z,15.20
2019-02-26T12:28:28.336Z,14.80
2019-02-26T12:30:58.672Z,17.53
2019-02-26T12:33:32.299Z,16.43
2019-02-26T12:36:02.047Z,18.50
2019-02-26T12:38:31.717Z,17.03
2019-02-26T12:41:01.519Z,17.87
2019-02-26T12:43:33.299Z,16.33
2019-02-26T12:46:04.540Z,13.63
2019-02-26T12:48:35.171Z,17.57
2019-02-26T12:51:05.330Z,16.30
2019-02-26T12:53:38.070Z,17.27
2019-02-26T12:56:08.956Z,16.73
2019-02-26T12:58:40.893Z,17.70
2019-02-26T13:01:09.710Z,14.80
2019-02-26T13:03:42.556Z,17.80
2019-02-26T13:06:12.119Z,14.73
2019-02-26T13:08:42.712Z,15.60
2019-02-26T13:11:14.055Z,14.20
2019-02-26T13:13:45.332Z,12.83
2019-02-26T13:16:15.322Z,14.40
2019-02-26T13:18:45.912Z,15.97
2019-02-26T13:21:17.148Z,12.70
2019-02-26T13:23:46.816Z,12.07
2019-02-26T13:26:19.528Z,13.07
2019-02-26T13:28:53.037Z,12.17
2019-02-26T13:31:22.385Z,13.90
2019-02-26T13:33:51.822Z,14.07
2019-02-26T13:36:21.629Z,12.07
2019-02-26T13:38:51.062Z,17.77
2019-02-26T13:41:29.319Z,15.37
2019-02-26T13:43:51.870Z,15.83
2019-02-26T13:46:21.450Z,15.57
2019-02-26T13:48:50.879Z,17.43
2019-02-26T13:51:20.302Z,12.77
2019-02-26T13:53:49.824Z,12.87
2019-02-26T13:56:19.314Z,16.50
2019-02-26T13:58:48.733Z,12.30
2019-02-26T14:01:18.250Z,13.60
2019-02-26T14:03:47.759Z,12.63
2019-02-26T14:06:17.263Z,12.90
2019-02-26T14:08:47.035Z,13.60
2019-02-26T14:11:16.559Z,15.20
2019-02-26T14:13:45.979Z,10.83
2019-02-26T14:16:15.429Z,12.93
2019-02-26T14:18:45.162Z,17.30
2019-02-26T14:21:14.848Z,14.73
2019-02-26T14:23:44.312Z,14.80
2019-02-26T14:26:13.744Z,14.87
2019-02-26T14:28:43.176Z,14.40
2019-02-26T14:31:12.612Z,14.50
2019-02-26T14:33:42.066Z,15.97
2019-02-26T14:36:11.535Z,13.23
2019-02-26T14:38:41.011Z,16.63
2019-02-26T14:41:17.316Z,11.30
2019-02-26T14:43:46.476Z,16.00
2019-02-26T14:46:15.900Z,14.43
2019-02-26T14:48:45.346Z,12.00
2019-02-26T14:51:15.100Z,12.30
2019-02-26T14:53:44.522Z,15.23
2019-02-26T14:56:13.989Z,14.50
2019-02-26T14:58:43.409Z,15.17
2019-02-26T15:01:12.858Z,17.43
2019-02-26T15:03:42.288Z,13.53
2019-02-26T15:06:12.082Z,14.27
2019-02-26T15:08:41.586Z,18.67
2019-02-26T15:11:11.602Z,16.73
2019-02-26T15:13:41.031Z,16.67
2019-02-26T15:16:10.843Z,16.90
2019-02-26T15:18:40.325Z,16.53
2019-02-26T15:21:09.797Z,19.43
2019-02-26T15:23:39.241Z,15.10
2019-02-26T15:26:08.757Z,19.53
2019-02-26T15:28:38.191Z,17.97
2019-02-26T15:31:07.713Z,17.60
2019-02-26T15:33:37.130Z,17.17
2019-02-26T15:36:06.623Z,17.50
2019-02-26T15:38:36.073Z,16.70
2019-02-26T15:41:05.782Z,18.17
2019-02-26T15:43:35.241Z,17.43
2019-02-26T15:46:04.799Z,15.97
2019-02-26T15:48:36.363Z,15.60
2019-02-26T15:51:13.911Z,18.40
2019-02-26T15:53:36.569Z,18.10
2019-02-26T15:56:06.091Z,19.77
2019-02-26T15:58:35.506Z,18.93
2019-02-26T16:01:09.020Z,17.87
2019-02-26T16:03:38.628Z,19.77
2019-02-26T16:06:08.071Z,19.43
2019-02-26T16:08:38.581Z,22.50
2019-02-26T16:11:08.266Z,24.00
2019-02-26T16:13:37.705Z,18.97
2019-02-26T16:16:07.132Z,19.97
2019-02-26T16:18:36.631Z,24.47
2019-02-26T16:21:06.073Z,19.33
2019-02-26T16:23:35.877Z,17.47
2019-02-26T16:26:05.667Z,16.73
2019-02-26T16:28:36.624Z,15.57
2019-02-26T16:31:06.143Z,20.67
2019-02-26T16:33:35.654Z,22.77
2019-02-26T16:36:05.229Z,19.93
2019-02-26T16:38:34.862Z,16.47
2019-02-26T16:41:04.957Z,24.53
2019-02-26T16:43:35.098Z,18.83
2019-02-26T16:46:08.363Z,23.20
2019-02-26T16:48:35.716Z,18.77
2019-02-26T16:51:05.226Z,20.87
2019-02-26T16:53:34.674Z,18.63
2019-02-26T16:56:04.292Z,20.97
2019-02-26T16:58:35.581Z,30.23
2019-02-26T17:01:05.908Z,32.87
2019-02-26T17:03:35.549Z,34.83
2019-02-26T17:06:05.493Z,27.83
2019-02-26T17:08:35.028Z,29.33
2019-02-26T17:11:04.531Z,29.57
2019-02-26T17:13:34.029Z,35.50
2019-02-26T17:16:03.709Z,25.00
2019-02-26T17:18:33.503Z,27.80
2019-02-26T17:21:02.951Z,25.07
2019-02-26T17:23:32.387Z,23.90
2019-02-26T17:26:02.501Z,22.37
2019-02-26T17:28:31.940Z,22.17
2019-02-26T17:31:01.366Z,24.57
2019-02-26T17:33:30.829Z,24.17
2019-02-26T17:36:02.005Z,28.33
2019-02-26T17:38:31.430Z,24.17
2019-02-26T17:41:00.864Z,26.57
2019-02-26T17:43:30.306Z,20.47
2019-02-26T17:45:59.870Z,25.23
2019-02-26T17:48:31.051Z,25.43
2019-02-26T17:51:00.722Z,23.80
2019-02-26T17:53:30.431Z,26.50
2019-02-26T17:55:59.884Z,24.73
2019-02-26T17:58:29.354Z,21.90
2019-02-26T18:00:59.165Z,24.33
2019-02-26T18:03:28.619Z,24.77
2019-02-26T18:06:00.076Z,29.60
2019-02-26T18:08:33.281Z,23.47
2019-02-26T18:11:02.722Z,29.43
2019-02-26T18:13:32.139Z,27.93
2019-02-26T18:16:08.914Z,35.20
2019-02-26T18:18:34.395Z,27.57
2019-02-26T18:21:05.944Z,25.80
2019-02-26T18:23:37.483Z,32.30
2019-02-26T18:26:06.611Z,37.20
2019-02-26T18:28:36.828Z,28.47
2019-02-26T18:31:06.885Z,29.97
2019-02-26T18:33:36.382Z,34.17
2019-02-26T18:36:05.773Z,33.90
2019-02-26T18:38:35.200Z,25.23
2019-02-26T18:41:04.708Z,36.70
2019-02-26T18:43:34.133Z,36.90
2019-02-26T18:46:03.606Z,33.07
2019-02-26T18:48:33.042Z,40.43
2019-02-26T18:51:03.058Z,309.80
2019-02-26T18:53:32.603Z,203.43
2019-02-26T18:56:04.207Z,43.77
2019-02-26T18:58:33.695Z,36.97
2019-02-26T19:01:03.128Z,31.23
2019-02-26T19:03:32.602Z,42.03
2019-02-26T19:06:03.577Z,34.13
2019-02-26T19:08:34.652Z,38.40
2019-02-26T19:11:04.591Z,28.47
2019-02-26T19:13:35.613Z,35.33
2019-02-26T19:16:05.416Z,34.67
2019-02-26T19:18:35.780Z,33.77
2019-02-26T19:21:06.280Z,31.80
2019-02-26T19:23:36.030Z,30.33
2019-02-26T19:26:05.991Z,30.70
2019-02-26T19:28:35.484Z,35.07
2019-02-26T19:31:04.924Z,27.70
2019-02-26T19:33:34.356Z,33.63
2019-02-26T19:36:03.801Z,32.30
2019-02-26T19:38:33.214Z,27.80
2019-02-26T19:41:13.167Z,30.47
2019-02-26T19:43:42.652Z,28.10
2019-02-26T19:46:16.861Z,38.33
2019-02-26T19:48:43.674Z,29.60
2019-02-26T19:51:13.422Z,28.50
2019-02-26T19:53:42.871Z,37.37
2019-02-26T19:56:12.482Z,37.93
2019-02-26T19:58:41.930Z,30.57
2019-02-26T20:01:11.486Z,30.37
2019-02-26T20:03:40.968Z,29.50
2019-02-26T20:06:10.422Z,37.50
2019-02-26T20:08:39.884Z,43.23
2019-02-26T20:11:09.512Z,34.57
2019-02-26T20:13:42.135Z,29.80
2019-02-26T20:16:10.688Z,31.83
2019-02-26T20:18:40.243Z,38.73
2019-02-26T20:21:09.733Z,41.83
2019-02-26T20:23:41.858Z,36.50
2019-02-26T20:26:10.468Z,34.03
2019-02-26T20:28:39.927Z,33.90
2019-02-26T20:31:09.348Z,31.03
2019-02-26T20:33:38.846Z,33.07
2019-02-26T20:36:08.668Z,35.20
2019-02-26T20:38:38.090Z,36.30
2019-02-26T20:41:07.639Z,55.93
2019-02-26T20:43:37.404Z,47.17
2019-02-26T20:46:06.951Z,49.77
2019-02-26T20:48:37.270Z,44.63
2019-02-26T20:51:06.974Z,51.87
2019-02-26T20:53:36.572Z,47.27
2019-02-26T20:56:07.573Z,47.23
2019-02-26T20:58:37.032Z,39.90
2019-02-26T21:01:06.524Z,37.07
2019-02-26T21:03:35.958Z,43.53
2019-02-26T21:06:05.460Z,44.77
2019-02-26T21:08:34.883Z,44.07
2019-02-26T21:11:04.485Z,38.33
2019-02-26T21:13:34.981Z,38.70
2019-02-26T21:16:05.021Z,36.40
2019-02-26T21:18:34.467Z,31.60
2019-02-26T21:21:03.964Z,31.90
2019-02-26T21:23:33.425Z,29.73
2019-02-26T21:26:02.913Z,34.83
2019-02-26T21:28:33.749Z,31.77
2019-02-26T21:31:04.037Z,31.97
2019-02-26T21:33:33.886Z,29.60
2019-02-26T21:36:03.595Z,36.20
2019-02-26T21:38:33.012Z,34.50
2019-02-26T21:41:02.521Z,35.07
2019-02-26T21:43:34.608Z,30.20
2019-02-26T21:46:03.075Z,35.73
2019-02-26T21:48:36.542Z,32.03
2019-02-26T21:51:03.679Z,31.93
2019-02-26T21:53:33.125Z,31.03
2019-02-26T21:56:02.848Z,29.67
2019-02-26T21:58:32.342Z,34.90
2019-02-26T22:01:01.787Z,32.73
2019-02-26T22:03:31.216Z,37.37
2019-02-26T22:06:05.362Z,33.63
2019-02-26T22:08:31.830Z,34.90
2019-02-26T22:11:01.498Z,36.50
2019-02-26T22:13:30.941Z,37.20
2019-02-26T22:16:00.470Z,35.60
2019-02-26T22:18:33.999Z,36.03
2019-02-26T22:21:01.082Z,34.73
2019-02-26T22:23:34.128Z,31.40
2019-02-26T22:26:01.757Z,36.47
2019-02-26T22:28:31.208Z,42.50
2019-02-26T22:31:00.706Z,39.60
2019-02-26T22:33:30.120Z,38.60
2019-02-26T22:36:00.074Z,37.97
2019-02-26T22:38:29.564Z,38.23
2019-02-26T22:40:59.952Z,38.80
2019-02-26T22:43:30.133Z,32.50
2019-02-26T22:46:00.997Z,37.53
2019-02-26T22:48:30.744Z,32.77
2019-02-26T22:51:00.326Z,33.03
2019-02-26T22:53:29.829Z,30.87
2019-02-26T22:55:59.253Z,34.87
2019-02-26T22:58:28.715Z,38.17
2019-02-26T23:01:12.643Z,34.47
2019-02-26T23:03:45.717Z,34.77
2019-02-26T23:06:13.976Z,35.93
2019-02-26T23:08:44.728Z,34.40
2019-02-26T23:11:16.220Z,39.67
2019-02-26T23:13:45.700Z,33.23
2019-02-26T23:16:17.942Z,33.53
2019-02-26T23:18:46.499Z,32.57
2019-02-26T23:21:16.289Z,35.20
2019-02-26T23:23:45.950Z,31.50
2019-02-26T23:26:15.444Z,34.07
2019-02-26T23:28:45.017Z,34.33
2019-02-26T23:31:16.336Z,35.63
2019-02-26T23:33:48.338Z,33.47
2019-02-26T23:36:17.134Z,38.77
2019-02-26T23:38:46.642Z,33.60
2019-02-26T23:41:16.144Z,34.77
2019-02-26T23:43:46.043Z,40.13
2019-02-26T23:46:15.638Z,32.57
2019-02-26T23:48:45.057Z,37.57
2019-02-26T23:51:14.572Z,33.67
2019-02-26T23:53:43.992Z,32.27
2019-02-26T23:56:13.443Z,37.63
2019-02-26T23:58:42.862Z,44.23
